^^
Station Historical Data
Daily Summary for February 13, 2017 Units:  Both    English   Metric
« Previous Day
Next Day »
Daily Weekly Monthly Yearly Custom
  High: Low: Average:
Temperature: 86.7 °F /  30.4 °C 62.2 °F /  16.8 °C 71.8 °F /  22.1 °C
Dew Point: 63.7 °F /  17.6 °C 54.0 °F /  12.2 °C 60.2 °F /  15.7 °C
Humidity: 95% 35% 70%
Wind Speed: 10.1mph /  16.3km/h - 1.6mph /  2.6km/h
Wind Gust: 12.0mph /  19.3km/h - -
Wind- - South
Pressure: 29.80 in /  1009 hPa 29.64 in /  1003.6 hPa -
Precipitation: 0.02 in /  0.51 mm    
Historical Graphs
 
 
Tabular Data for February 13, 2017
Time Temperature Dew Point Pressure Wind Wind Speed Wind Gust Humidity Rainfall Rate (Hourly) solar Conditions
00:05 65.7 °F /  18.7 °C 61.3 °F /  16.3 °C 29.80in /  1009hPa West 2.9mph /  4.7km/h 6.0mph /  9.7km/h 86% 0.00in /  0mm 0.0 W/m2
00:11 65.7 °F /  18.7 °C 61.3 °F /  16.3 °C 29.80in /  1009hPa NNW 0.9mph /  1.4km/h 2.0mph /  3.2km/h 86% 0.00in /  0mm 0.0 W/m2
00:17 65.7 °F /  18.7 °C 61.3 °F /  16.3 °C 29.80in /  1009hPa NNW 2.0mph /  3.2km/h 2.0mph /  3.2km/h 86% 0.00in /  0mm 0.0 W/m2
00:23 65.7 °F /  18.7 °C 61.3 °F /  16.3 °C 29.80in /  1009hPa NNW 4.9mph /  7.9km/h 6.0mph /  9.7km/h 86% 0.00in /  0mm 0.0 W/m2
00:29 65.7 °F /  18.7 °C 61.7 °F /  16.5 °C 29.79in /  1008.7hPa NW 2.0mph /  3.2km/h 5.0mph /  8km/h 87% 0.00in /  0mm 0.0 W/m2
00:35 65.7 °F /  18.7 °C 61.7 °F /  16.5 °C 29.79in /  1008.7hPa NW 2.0mph /  3.2km/h 3.0mph /  4.8km/h 87% 0.00in /  0mm 0.0 W/m2
00:41 65.5 °F /  18.6 °C 61.5 °F /  16.4 °C 29.79in /  1008.7hPa North 4.0mph /  6.4km/h 5.0mph /  8km/h 87% 0.00in /  0mm 0.0 W/m2
00:48 65.5 °F /  18.6 °C 61.5 °F /  16.4 °C 29.79in /  1008.7hPa NNW 2.9mph /  4.7km/h 4.0mph /  6.4km/h 87% 0.00in /  0mm 0.0 W/m2
00:54 65.5 °F /  18.6 °C 61.5 °F /  16.4 °C 29.78in /  1008.4hPa Calm   4.0mph /  6.4km/h 87% 0.00in /  0mm 0.0 W/m2
01:00 65.3 °F /  18.5 °C 61.3 °F /  16.3 °C 29.78in /  1008.4hPa Calm   1.0mph /  1.6km/h 87% 0.00in /  0mm 0.0 W/m2
01:06 65.1 °F /  18.4 °C 61.2 °F /  16.2 °C 29.78in /  1008.4hPa Calm   1.0mph /  1.6km/h 87% 0.00in /  0mm 0.0 W/m2
01:12 65.1 °F /  18.4 °C 61.2 °F /  16.2 °C 29.77in /  1008hPa NNW 0.9mph /  1.4km/h 4.0mph /  6.4km/h 87% 0.00in /  0mm 0.0 W/m2
01:18 64.9 °F /  18.3 °C 61.0 °F /  16.1 °C 29.78in /  1008.4hPa Calm     87% 0.00in /  0mm 0.0 W/m2
01:24 64.9 °F /  18.3 °C 61.3 °F /  16.3 °C 29.77in /  1008hPa Calm   2.0mph /  3.2km/h 88% 0.00in /  0mm 0.0 W/m2
01:30 64.9 °F /  18.3 °C 61.3 °F /  16.3 °C 29.77in /  1008hPa Calm     88% 0.00in /  0mm 0.0 W/m2
01:37 64.9 °F /  18.3 °C 61.3 °F /  16.3 °C 29.77in /  1008hPa West 2.9mph /  4.7km/h 5.0mph /  8km/h 88% 0.00in /  0mm 0.0 W/m2
01:43 64.8 °F /  18.2 °C 60.8 °F /  16 °C 29.77in /  1008hPa WNW 0.9mph /  1.4km/h 1.0mph /  1.6km/h 87% 0.00in /  0mm 0.0 W/m2
01:49 64.8 °F /  18.2 °C 61.2 °F /  16.2 °C 29.77in /  1008hPa Calm   2.0mph /  3.2km/h 88% 0.00in /  0mm 0.0 W/m2
01:55 64.8 °F /  18.2 °C 61.2 °F /  16.2 °C 29.76in /  1007.7hPa Calm   1.0mph /  1.6km/h 88% 0.00in /  0mm 0.0 W/m2
02:01 64.8 °F /  18.2 °C 60.8 °F /  16 °C 29.76in /  1007.7hPa Calm   1.0mph /  1.6km/h 87% 0.00in /  0mm 0.0 W/m2
02:07 64.8 °F /  18.2 °C 60.8 °F /  16 °C 29.76in /  1007.7hPa Calm   1.0mph /  1.6km/h 87% 0.00in /  0mm 0.0 W/m2
02:13 64.8 °F /  18.2 °C 60.8 °F /  16 °C 29.76in /  1007.7hPa Calm     87% 0.00in /  0mm 0.0 W/m2
02:20 64.6 °F /  18.1 °C 60.6 °F /  15.9 °C 29.76in /  1007.7hPa Calm     87% 0.00in /  0mm 0.0 W/m2
02:27 64.6 °F /  18.1 °C 61.0 °F /  16.1 °C 29.76in /  1007.7hPa Calm     88% 0.00in /  0mm 0.0 W/m2
02:32 64.6 °F /  18.1 °C 61.0 °F /  16.1 °C 29.75in /  1007.3hPa Calm     88% 0.00in /  0mm 0.0 W/m2
02:38 64.6 °F /  18.1 °C 61.0 °F /  16.1 °C 29.75in /  1007.3hPa Calm     88% 0.00in /  0mm 0.0 W/m2
02:44 64.6 °F /  18.1 °C 61.0 °F /  16.1 °C 29.75in /  1007.3hPa Calm     88% 0.00in /  0mm 0.0 W/m2
02:50 64.4 °F /  18 °C 60.8 °F /  16 °C 29.75in /  1007.3hPa Calm   2.0mph /  3.2km/h 88% 0.00in /  0mm 0.0 W/m2
02:56 64.4 °F /  18 °C 60.8 °F /  16 °C 29.74in /  1007hPa Calm     88% 0.00in /  0mm 0.0 W/m2
03:03 64.6 °F /  18.1 °C 61.3 °F /  16.3 °C 29.74in /  1007hPa Calm   1.0mph /  1.6km/h 89% 0.00in /  0mm 0.0 W/m2
03:09 64.6 °F /  18.1 °C 61.3 °F /  16.3 °C 29.74in /  1007hPa Calm     89% 0.00in /  0mm 0.0 W/m2
03:15 64.8 °F /  18.2 °C 61.7 °F /  16.5 °C 29.74in /  1007hPa Calm     90% 0.02in /  0.51mm 0.0 W/m2
03:21 64.8 °F /  18.2 °C 62.1 °F /  16.7 °C 29.73in /  1006.7hPa Calm   3.0mph /  4.8km/h 91% 0.02in /  0.51mm 0.0 W/m2
03:27 64.8 °F /  18.2 °C 62.1 °F /  16.7 °C 29.73in /  1006.7hPa Calm   1.0mph /  1.6km/h 91% 0.02in /  0.51mm 0.0 W/m2
03:33 64.8 °F /  18.2 °C 62.1 °F /  16.7 °C 29.73in /  1006.7hPa Calm     91% 0.02in /  0.51mm 0.0 W/m2
03:50 64.6 °F /  18.1 °C 61.9 °F /  16.6 °C 29.73in /  1006.7hPa Calm     91% 0.02in /  0.51mm 0.0 W/m2
03:56 64.6 °F /  18.1 °C 61.9 °F /  16.6 °C 29.72in /  1006.3hPa Calm     91% 0.02in /  0.51mm 0.0 W/m2
04:08 64.6 °F /  18.1 °C 61.9 °F /  16.6 °C 29.72in /  1006.3hPa Calm     91% 0.02in /  0.51mm 0.0 W/m2
04:14 64.6 °F /  18.1 °C 61.9 °F /  16.6 °C 29.72in /  1006.3hPa Calm     91% 0.00in /  0mm 0.0 W/m2
04:20 64.4 °F /  18 °C 61.7 °F /  16.5 °C 29.72in /  1006.3hPa Calm     91% 0.00in /  0mm 0.0 W/m2
04:26 64.2 °F /  17.9 °C 61.5 °F /  16.4 °C 29.72in /  1006.3hPa Calm     91% 0.00in /  0mm 0.0 W/m2
04:32 64.2 °F /  17.9 °C 61.9 °F /  16.6 °C 29.72in /  1006.3hPa Calm     92% 0.00in /  0mm 0.0 W/m2
04:39 64.0 °F /  17.8 °C 61.7 °F /  16.5 °C 29.72in /  1006.3hPa Calm     92% 0.00in /  0mm 0.0 W/m2
04:45 64.0 °F /  17.8 °C 61.7 °F /  16.5 °C 29.72in /  1006.3hPa Calm     92% 0.00in /  0mm 0.0 W/m2
04:51 63.9 °F /  17.7 °C 61.5 °F /  16.4 °C 29.72in /  1006.3hPa Calm     92% 0.00in /  0mm 0.0 W/m2
04:57 63.7 °F /  17.6 °C 61.3 °F /  16.3 °C 29.72in /  1006.3hPa Calm     92% 0.00in /  0mm 0.0 W/m2
05:03 63.7 °F /  17.6 °C 61.7 °F /  16.5 °C 29.72in /  1006.3hPa Calm     93% 0.00in /  0mm 0.0 W/m2
05:10 63.5 °F /  17.5 °C 61.2 °F /  16.2 °C 29.72in /  1006.3hPa Calm     92% 0.00in /  0mm 0.0 W/m2
05:16 63.3 °F /  17.4 °C 61.3 °F /  16.3 °C 29.72in /  1006.3hPa Calm   2.0mph /  3.2km/h 93% 0.00in /  0mm 0.0 W/m2
05:22 63.3 °F /  17.4 °C 61.3 °F /  16.3 °C 29.72in /  1006.3hPa Calm   1.0mph /  1.6km/h 93% 0.00in /  0mm 0.0 W/m2
05:28 63.1 °F /  17.3 °C 61.2 °F /  16.2 °C 29.72in /  1006.3hPa Calm     93% 0.00in /  0mm 0.0 W/m2
05:34 63.1 °F /  17.3 °C 61.2 °F /  16.2 °C 29.72in /  1006.3hPa Calm     93% 0.00in /  0mm 0.0 W/m2
05:40 63.0 °F /  17.2 °C 61.0 °F /  16.1 °C 29.72in /  1006.3hPa Calm     93% 0.00in /  0mm 0.0 W/m2
05:46 63.0 °F /  17.2 °C 61.0 °F /  16.1 °C 29.72in /  1006.3hPa Calm     93% 0.00in /  0mm 0.0 W/m2
05:53 63.0 °F /  17.2 °C 61.0 °F /  16.1 °C 29.72in /  1006.3hPa Calm   2.0mph /  3.2km/h 93% 0.00in /  0mm 0.0 W/m2
05:59 63.0 °F /  17.2 °C 61.0 °F /  16.1 °C 29.72in /  1006.3hPa ENE 0.9mph /  1.4km/h 1.0mph /  1.6km/h 93% 0.00in /  0mm 0.0 W/m2
06:05 62.8 °F /  17.1 °C 60.8 °F /  16 °C 29.72in /  1006.3hPa Calm   1.0mph /  1.6km/h 93% 0.00in /  0mm 0.0 W/m2
06:11 62.8 °F /  17.1 °C 60.8 °F /  16 °C 29.72in /  1006.3hPa Calm   2.0mph /  3.2km/h 93% 0.00in /  0mm 0.0 W/m2
06:17 62.6 °F /  17 °C 60.8 °F /  16 °C 29.72in /  1006.3hPa East 0.9mph /  1.4km/h 2.0mph /  3.2km/h 94% 0.00in /  0mm 0.0 W/m2
06:23 62.4 °F /  16.9 °C 60.6 °F /  15.9 °C 29.72in /  1006.3hPa Calm   2.0mph /  3.2km/h 94% 0.00in /  0mm 0.0 W/m2
06:29 62.4 °F /  16.9 °C 60.6 °F /  15.9 °C 29.72in /  1006.3hPa Calm   1.0mph /  1.6km/h 94% 0.00in /  0mm 0.0 W/m2
06:35 62.2 °F /  16.8 °C 60.4 °F /  15.8 °C 29.71in /  1006hPa Calm     94% 0.00in /  0mm 0.0 W/m2
06:41 62.2 °F /  16.8 °C 60.4 °F /  15.8 °C 29.72in /  1006.3hPa Calm     94% 0.00in /  0mm 0.0 W/m2
06:47 62.2 °F /  16.8 °C 60.4 °F /  15.8 °C 29.72in /  1006.3hPa Calm     94% 0.00in /  0mm 7.0 W/m2
06:53 62.2 °F /  16.8 °C 60.4 °F /  15.8 °C 29.72in /  1006.3hPa Calm   2.0mph /  3.2km/h 94% 0.00in /  0mm 12.0 W/m2
06:59 62.4 °F /  16.9 °C 60.6 °F /  15.9 °C 29.72in /  1006.3hPa Calm   3.0mph /  4.8km/h 94% 0.00in /  0mm 19.0 W/m2
07:05 62.4 °F /  16.9 °C 60.6 °F /  15.9 °C 29.72in /  1006.3hPa Calm   1.0mph /  1.6km/h 94% 0.00in /  0mm 28.0 W/m2
07:11 62.4 °F /  16.9 °C 60.6 °F /  15.9 °C 29.72in /  1006.3hPa ENE 0.9mph /  1.4km/h 2.0mph /  3.2km/h 94% 0.00in /  0mm 39.0 W/m2
07:18 62.6 °F /  17 °C 60.8 °F /  16 °C 29.73in /  1006.7hPa Calm   3.0mph /  4.8km/h 94% 0.00in /  0mm 46.0 W/m2
07:23 62.8 °F /  17.1 °C 61.0 °F /  16.1 °C 29.73in /  1006.7hPa ENE 0.9mph /  1.4km/h 1.0mph /  1.6km/h 94% 0.00in /  0mm 51.0 W/m2
07:29 63.0 °F /  17.2 °C 61.5 °F /  16.4 °C 29.73in /  1006.7hPa Calm     95% 0.00in /  0mm 56.0 W/m2
07:35 63.1 °F /  17.3 °C 61.7 °F /  16.5 °C 29.73in /  1006.7hPa Calm     95% 0.00in /  0mm 56.0 W/m2
07:41 63.3 °F /  17.4 °C 61.9 °F /  16.6 °C 29.74in /  1007hPa Calm   1.0mph /  1.6km/h 95% 0.00in /  0mm 65.0 W/m2
07:48 63.7 °F /  17.6 °C 62.2 °F /  16.8 °C 29.74in /  1007hPa Calm   1.0mph /  1.6km/h 95% 0.00in /  0mm 69.0 W/m2
07:53 64.0 °F /  17.8 °C 62.6 °F /  17 °C 29.74in /  1007hPa Calm     95% 0.00in /  0mm 67.0 W/m2
07:59 64.2 °F /  17.9 °C 62.4 °F /  16.9 °C 29.74in /  1007hPa Calm     94% 0.00in /  0mm 63.0 W/m2
08:05 64.6 °F /  18.1 °C 62.8 °F /  17.1 °C 29.74in /  1007hPa Calm     94% 0.00in /  0mm 60.0 W/m2
08:11 64.8 °F /  18.2 °C 62.1 °F /  16.7 °C 29.74in /  1007hPa Calm   1.0mph /  1.6km/h 91% 0.00in /  0mm 58.0 W/m2
08:17 65.3 °F /  18.5 °C 62.2 °F /  16.8 °C 29.74in /  1007hPa Calm     90% 0.00in /  0mm 54.0 W/m2
08:23 65.7 °F /  18.7 °C 62.1 °F /  16.7 °C 29.74in /  1007hPa SSW 2.0mph /  3.2km/h 3.0mph /  4.8km/h 88% 0.00in /  0mm 54.0 W/m2
08:29 66.4 °F /  19.1 °C 59.4 °F /  15.2 °C 29.74in /  1007hPa Calm   6.0mph /  9.7km/h 78% 0.00in /  0mm 54.0 W/m2
08:35 67.6 °F /  19.8 °C 59.0 °F /  15 °C 29.74in /  1007hPa SW 0.9mph /  1.4km/h 4.0mph /  6.4km/h 74% 0.00in /  0mm 53.0 W/m2
08:41 68.2 °F /  20.1 °C 59.2 °F /  15.1 °C 29.74in /  1007hPa South 0.9mph /  1.4km/h 4.0mph /  6.4km/h 73% 0.00in /  0mm 104.0 W/m2
08:47 69.1 °F /  20.6 °C 58.8 °F /  14.9 °C 29.74in /  1007hPa Calm   2.0mph /  3.2km/h 70% 0.00in /  0mm 381.0 W/m2
08:53 69.8 °F /  21 °C 58.8 °F /  14.9 °C 29.75in /  1007.3hPa SW 2.9mph /  4.7km/h 5.0mph /  8km/h 68% 0.00in /  0mm 473.0 W/m2
08:59 71.1 °F /  21.7 °C 58.3 °F /  14.6 °C 29.75in /  1007.3hPa Calm   6.0mph /  9.7km/h 64% 0.00in /  0mm 512.0 W/m2
09:05 72.1 °F /  22.3 °C 58.5 °F /  14.7 °C 29.75in /  1007.3hPa South 6.0mph /  9.7km/h 8.0mph /  12.9km/h 62% 0.00in /  0mm 541.0 W/m2
09:11 73.2 °F /  22.9 °C 57.0 °F /  13.9 °C 29.75in /  1007.3hPa SSE 4.0mph /  6.4km/h 12.0mph /  19.3km/h 57% 0.00in /  0mm 564.0 W/m2
09:17 74.3 °F /  23.5 °C 57.0 °F /  13.9 °C 29.75in /  1007.3hPa SSE 4.9mph /  7.9km/h 10.0mph /  16.1km/h 55% 0.00in /  0mm 758.0 W/m2
09:23 75.0 °F /  23.9 °C 57.2 °F /  14 °C 29.75in /  1007.3hPa SSW 0.9mph /  1.4km/h 8.0mph /  12.9km/h 54% 0.00in /  0mm 661.0 W/m2
09:29 75.7 °F /  24.3 °C 57.4 °F /  14.1 °C 29.75in /  1007.3hPa ESE 4.0mph /  6.4km/h 8.0mph /  12.9km/h 53% 0.00in /  0mm 772.0 W/m2
09:35 76.5 °F /  24.7 °C 58.6 °F /  14.8 °C 29.75in /  1007.3hPa SSE 2.0mph /  3.2km/h 4.0mph /  6.4km/h 54% 0.00in /  0mm 708.0 W/m2
09:41 76.8 °F /  24.9 °C 56.3 °F /  13.5 °C 29.75in /  1007.3hPa SE 4.9mph /  7.9km/h 10.0mph /  16.1km/h 49% 0.00in /  0mm 670.0 W/m2
09:47 77.5 °F /  25.3 °C 55.0 °F /  12.8 °C 29.75in /  1007.3hPa SSE 8.9mph /  14.3km/h 10.0mph /  16.1km/h 46% 0.00in /  0mm 691.0 W/m2
09:53 78.3 °F /  25.7 °C 54.5 °F /  12.5 °C 29.75in /  1007.3hPa Calm   6.0mph /  9.7km/h 44% 0.00in /  0mm 712.0 W/m2
09:59 78.6 °F /  25.9 °C 56.1 °F /  13.4 °C 29.75in /  1007.3hPa SSW 4.0mph /  6.4km/h 6.0mph /  9.7km/h 46% 0.00in /  0mm 731.0 W/m2
10:05 79.3 °F /  26.3 °C 56.1 °F /  13.4 °C 29.75in /  1007.3hPa ESE 6.9mph /  11.1km/h 10.0mph /  16.1km/h 45% 0.00in /  0mm 747.0 W/m2
10:11 79.9 °F /  26.6 °C 55.4 °F /  13 °C 29.75in /  1007.3hPa SE 2.0mph /  3.2km/h 5.0mph /  8km/h 43% 0.00in /  0mm 765.0 W/m2
10:17 80.1 °F /  26.7 °C 54.9 °F /  12.7 °C 29.75in /  1007.3hPa ESE 10.1mph /  16.3km/h 10.1mph /  16.3km/h 42% 0.00in /  0mm 786.0 W/m2
10:23 80.2 °F /  26.8 °C 54.3 °F /  12.4 °C 29.75in /  1007.3hPa SE 6.9mph /  11.1km/h 11.0mph /  17.7km/h 41% 0.00in /  0mm 803.0 W/m2
10:29 80.4 °F /  26.9 °C 54.0 °F /  12.2 °C 29.76in /  1007.7hPa SE 6.0mph /  9.7km/h 8.0mph /  12.9km/h 40% 0.00in /  0mm 821.0 W/m2
10:35 80.8 °F /  27.1 °C 54.9 °F /  12.7 °C 29.76in /  1007.7hPa South 4.0mph /  6.4km/h 9.0mph /  14.5km/h 41% 0.00in /  0mm 840.0 W/m2
10:41 81.0 °F /  27.2 °C 55.0 °F /  12.8 °C 29.76in /  1007.7hPa SSE 6.9mph /  11.1km/h 10.0mph /  16.1km/h 41% 0.00in /  0mm 851.0 W/m2
10:47 81.0 °F /  27.2 °C 54.3 °F /  12.4 °C 29.76in /  1007.7hPa SSE 10.1mph /  16.3km/h 11.0mph /  17.7km/h 40% 0.00in /  0mm 856.0 W/m2
10:53 81.3 °F /  27.4 °C 55.4 °F /  13 °C 29.76in /  1007.7hPa ESE 6.9mph /  11.1km/h 7.0mph /  11.3km/h 41% 0.00in /  0mm 870.0 W/m2
10:59 81.7 °F /  27.6 °C 55.8 °F /  13.2 °C 29.76in /  1007.7hPa SE 2.9mph /  4.7km/h 10.0mph /  16.1km/h 41% 0.00in /  0mm 884.0 W/m2
11:05 81.9 °F /  27.7 °C 55.9 °F /  13.3 °C 29.76in /  1007.7hPa South 6.0mph /  9.7km/h 6.0mph /  9.7km/h 41% 0.00in /  0mm 909.0 W/m2
11:11 82.0 °F /  27.8 °C 55.4 °F /  13 °C 29.75in /  1007.3hPa SSW 2.9mph /  4.7km/h 7.0mph /  11.3km/h 40% 0.00in /  0mm 919.0 W/m2
11:17 82.4 °F /  28 °C 56.3 °F /  13.5 °C 29.75in /  1007.3hPa SE 0.9mph /  1.4km/h 11.0mph /  17.7km/h 41% 0.00in /  0mm 933.0 W/m2
11:23 82.8 °F /  28.2 °C 55.2 °F /  12.9 °C 29.75in /  1007.3hPa South 2.0mph /  3.2km/h 7.0mph /  11.3km/h 39% 0.00in /  0mm 946.0 W/m2
11:29 82.9 °F /  28.3 °C 55.4 °F /  13 °C 29.75in /  1007.3hPa SW 6.0mph /  9.7km/h 7.0mph /  11.3km/h 39% 0.00in /  0mm 954.0 W/m2
11:35 83.1 °F /  28.4 °C 56.3 °F /  13.5 °C 29.75in /  1007.3hPa SE 4.0mph /  6.4km/h 6.0mph /  9.7km/h 40% 0.00in /  0mm 967.0 W/m2
11:41 83.3 °F /  28.5 °C 55.8 °F /  13.2 °C 29.75in /  1007.3hPa SW 2.9mph /  4.7km/h 8.0mph /  12.9km/h 39% 0.00in /  0mm 979.0 W/m2
11:47 83.7 °F /  28.7 °C 55.4 °F /  13 °C 29.75in /  1007.3hPa ESE 2.0mph /  3.2km/h 7.0mph /  11.3km/h 38% 0.00in /  0mm 990.0 W/m2
11:53 83.8 °F /  28.8 °C 55.6 °F /  13.1 °C 29.75in /  1007.3hPa West 2.9mph /  4.7km/h 6.0mph /  9.7km/h 38% 0.00in /  0mm 1011.0 W/m2
11:59 83.8 °F /  28.8 °C 56.3 °F /  13.5 °C 29.74in /  1007hPa South 4.0mph /  6.4km/h 5.0mph /  8km/h 39% 0.00in /  0mm 1051.0 W/m2
12:05 84.4 °F /  29.1 °C 57.4 °F /  14.1 °C 29.74in /  1007hPa ESE 2.0mph /  3.2km/h 7.0mph /  11.3km/h 40% 0.00in /  0mm 1116.0 W/m2
12:11 84.7 °F /  29.3 °C 56.3 °F /  13.5 °C 29.74in /  1007hPa ESE 2.0mph /  3.2km/h 9.0mph /  14.5km/h 38% 0.00in /  0mm 1100.0 W/m2
12:17 84.6 °F /  29.2 °C 56.1 °F /  13.4 °C 29.74in /  1007hPa SSE 2.9mph /  4.7km/h 4.0mph /  6.4km/h 38% 0.00in /  0mm 1151.0 W/m2
12:23 84.4 °F /  29.1 °C 56.7 °F /  13.7 °C 29.73in /  1006.7hPa SE 4.9mph /  7.9km/h 7.0mph /  11.3km/h 39% 0.00in /  0mm 1074.0 W/m2
12:29 84.4 °F /  29.1 °C 57.4 °F /  14.1 °C 29.73in /  1006.7hPa SW 0.9mph /  1.4km/h 7.0mph /  11.3km/h 40% 0.00in /  0mm 1125.0 W/m2
12:35 84.4 °F /  29.1 °C 57.4 °F /  14.1 °C 29.73in /  1006.7hPa SW 2.0mph /  3.2km/h 7.0mph /  11.3km/h 40% 0.00in /  0mm 1102.0 W/m2
12:41 84.9 °F /  29.4 °C 56.5 °F /  13.6 °C 29.72in /  1006.3hPa SE 4.0mph /  6.4km/h 11.0mph /  17.7km/h 38% 0.00in /  0mm 1086.0 W/m2
12:47 85.5 °F /  29.7 °C 57.0 °F /  13.9 °C 29.72in /  1006.3hPa SSW 4.9mph /  7.9km/h 9.0mph /  14.5km/h 38% 0.00in /  0mm 1121.0 W/m2
12:53 85.5 °F /  29.7 °C 57.0 °F /  13.9 °C 29.72in /  1006.3hPa WSW 2.9mph /  4.7km/h 8.0mph /  12.9km/h 38% 0.00in /  0mm 1114.0 W/m2
12:59 85.5 °F /  29.7 °C 57.7 °F /  14.3 °C 29.71in /  1006hPa Calm   7.0mph /  11.3km/h 39% 0.00in /  0mm 1204.0 W/m2
13:05 85.5 °F /  29.7 °C 57.0 °F /  13.9 °C 29.71in /  1006hPa WSW 6.9mph /  11.1km/h 7.0mph /  11.3km/h 38% 0.00in /  0mm 315.0 W/m2
13:11 85.1 °F /  29.5 °C 56.7 °F /  13.7 °C 29.70in /  1005.6hPa SSW 6.0mph /  9.7km/h 6.0mph /  9.7km/h 38% 0.00in /  0mm 1227.0 W/m2
13:17 84.9 °F /  29.4 °C 56.5 °F /  13.6 °C 29.70in /  1005.6hPa SSE 4.0mph /  6.4km/h 8.0mph /  12.9km/h 38% 0.00in /  0mm 1190.0 W/m2
13:23 85.8 °F /  29.9 °C 56.5 °F /  13.6 °C 29.69in /  1005.3hPa South 4.9mph /  7.9km/h 11.0mph /  17.7km/h 37% 0.00in /  0mm 1169.0 W/m2
13:29 86.5 °F /  30.3 °C 55.6 °F /  13.1 °C 29.69in /  1005.3hPa SSW 6.0mph /  9.7km/h 12.0mph /  19.3km/h 35% 0.00in /  0mm 1223.0 W/m2
13:35 86.5 °F /  30.3 °C 56.5 °F /  13.6 °C 29.69in /  1005.3hPa WSW 0.9mph /  1.4km/h 7.0mph /  11.3km/h 36% 0.00in /  0mm 1238.0 W/m2
13:41 86.4 °F /  30.2 °C 57.0 °F /  13.9 °C 29.68in /  1005hPa South 4.0mph /  6.4km/h 5.0mph /  8km/h 37% 0.00in /  0mm 1225.0 W/m2
13:47 86.7 °F /  30.4 °C 58.1 °F /  14.5 °C 29.67in /  1004.6hPa South 8.9mph /  14.3km/h 9.0mph /  14.5km/h 38% 0.00in /  0mm 1225.0 W/m2
13:53 86.7 °F /  30.4 °C 56.7 °F /  13.7 °C 29.67in /  1004.6hPa West 0.9mph /  1.4km/h 2.0mph /  3.2km/h 36% 0.00in /  0mm 260.0 W/m2
13:59 85.8 °F /  29.9 °C 56.5 °F /  13.6 °C 29.67in /  1004.6hPa SE 0.9mph /  1.4km/h 4.0mph /  6.4km/h 37% 0.00in /  0mm 241.0 W/m2
14:05 85.1 °F /  29.5 °C 57.4 °F /  14.1 °C 29.67in /  1004.6hPa South 0.9mph /  1.4km/h 6.0mph /  9.7km/h 39% 0.00in /  0mm 241.0 W/m2
14:11 84.7 °F /  29.3 °C 56.3 °F /  13.5 °C 29.67in /  1004.6hPa ENE 4.9mph /  7.9km/h 7.0mph /  11.3km/h 38% 0.00in /  0mm 339.0 W/m2
14:17 84.9 °F /  29.4 °C 57.2 °F /  14 °C 29.67in /  1004.6hPa ESE 6.0mph /  9.7km/h 6.0mph /  9.7km/h 39% 0.00in /  0mm 1239.0 W/m2
14:23 85.8 °F /  29.9 °C 57.2 °F /  14 °C 29.66in /  1004.3hPa SSE 0.9mph /  1.4km/h 5.0mph /  8km/h 38% 0.00in /  0mm 352.0 W/m2
14:29 86.2 °F /  30.1 °C 56.8 °F /  13.8 °C 29.65in /  1003.9hPa ENE 6.9mph /  11.1km/h 7.0mph /  11.3km/h 37% 0.00in /  0mm 260.0 W/m2
14:36 85.5 °F /  29.7 °C 57.7 °F /  14.3 °C 29.64in /  1003.6hPa ESE 6.9mph /  11.1km/h 8.0mph /  12.9km/h 39% 0.00in /  0mm 267.0 W/m2
14:42 85.3 °F /  29.6 °C 56.1 °F /  13.4 °C 29.64in /  1003.6hPa ESE 0.9mph /  1.4km/h 6.0mph /  9.7km/h 37% 0.00in /  0mm 179.0 W/m2
14:48 84.9 °F /  29.4 °C 55.8 °F /  13.2 °C 29.65in /  1003.9hPa West 0.9mph /  1.4km/h 4.0mph /  6.4km/h 37% 0.00in /  0mm 158.0 W/m2
14:54 84.0 °F /  28.9 °C 62.2 °F /  16.8 °C 29.65in /  1003.9hPa NNE 6.9mph /  11.1km/h 9.0mph /  14.5km/h 48% 0.00in /  0mm 116.0 W/m2
15:00 81.7 °F /  27.6 °C 61.2 °F /  16.2 °C 29.65in /  1003.9hPa North 4.0mph /  6.4km/h 9.0mph /  14.5km/h 50% 0.00in /  0mm 79.0 W/m2
15:06 80.1 °F /  26.7 °C 59.7 °F /  15.4 °C 29.65in /  1003.9hPa NNW 4.9mph /  7.9km/h 7.0mph /  11.3km/h 50% 0.00in /  0mm 77.0 W/m2
15:12 79.0 °F /  26.1 °C 59.4 °F /  15.2 °C 29.66in /  1004.3hPa NNW 8.9mph /  14.3km/h 12.0mph /  19.3km/h 51% 0.00in /  0mm 72.0 W/m2
15:18 78.1 °F /  25.6 °C 59.0 °F /  15 °C 29.66in /  1004.3hPa NNE 6.0mph /  9.7km/h 11.0mph /  17.7km/h 52% 0.00in /  0mm 63.0 W/m2
15:24 77.2 °F /  25.1 °C 58.6 °F /  14.8 °C 29.66in /  1004.3hPa North 2.9mph /  4.7km/h 9.0mph /  14.5km/h 53% 0.00in /  0mm 54.0 W/m2
15:30 76.5 °F /  24.7 °C 60.6 °F /  15.9 °C 29.66in /  1004.3hPa North 2.9mph /  4.7km/h 4.0mph /  6.4km/h 58% 0.00in /  0mm 53.0 W/m2
15:36 75.7 °F /  24.3 °C 60.8 °F /  16 °C 29.66in /  1004.3hPa North 6.0mph /  9.7km/h 9.0mph /  14.5km/h 60% 0.00in /  0mm 63.0 W/m2
15:42 74.8 °F /  23.8 °C 60.4 °F /  15.8 °C 29.66in /  1004.3hPa NW 6.0mph /  9.7km/h 7.0mph /  11.3km/h 61% 0.00in /  0mm 74.0 W/m2
15:48 73.9 °F /  23.3 °C 60.1 °F /  15.6 °C 29.66in /  1004.3hPa NNW 4.0mph /  6.4km/h 6.0mph /  9.7km/h 62% 0.00in /  0mm 67.0 W/m2
15:54 73.8 °F /  23.2 °C 60.4 °F /  15.8 °C 29.67in /  1004.6hPa NNW 2.0mph /  3.2km/h 3.0mph /  4.8km/h 63% 0.00in /  0mm 65.0 W/m2
16:01 73.6 °F /  23.1 °C 59.7 °F /  15.4 °C 29.67in /  1004.6hPa NNE 0.9mph /  1.4km/h 2.0mph /  3.2km/h 62% 0.00in /  0mm 63.0 W/m2
16:07 73.4 °F /  23 °C 60.1 °F /  15.6 °C 29.66in /  1004.3hPa NE 2.0mph /  3.2km/h 3.0mph /  4.8km/h 63% 0.00in /  0mm 67.0 W/m2
16:13 73.2 °F /  22.9 °C 59.9 °F /  15.5 °C 29.66in /  1004.3hPa NNE 2.0mph /  3.2km/h 2.0mph /  3.2km/h 63% 0.00in /  0mm 67.0 W/m2
16:19 73.4 °F /  23 °C 60.4 °F /  15.8 °C 29.65in /  1003.9hPa ENE 2.9mph /  4.7km/h 3.0mph /  4.8km/h 64% 0.00in /  0mm 65.0 W/m2
16:25 73.4 °F /  23 °C 60.4 °F /  15.8 °C 29.65in /  1003.9hPa NE 2.9mph /  4.7km/h 4.0mph /  6.4km/h 64% 0.00in /  0mm 63.0 W/m2
16:31 73.4 °F /  23 °C 61.3 °F /  16.3 °C 29.65in /  1003.9hPa NE 4.0mph /  6.4km/h 7.0mph /  11.3km/h 66% 0.00in /  0mm 60.0 W/m2
16:37 73.2 °F /  22.9 °C 62.1 °F /  16.7 °C 29.64in /  1003.6hPa ENE 2.0mph /  3.2km/h 4.0mph /  6.4km/h 68% 0.00in /  0mm 63.0 W/m2
16:43 73.0 °F /  22.8 °C 61.5 °F /  16.4 °C 29.65in /  1003.9hPa Calm   1.0mph /  1.6km/h 67% 0.00in /  0mm 74.0 W/m2
16:49 72.9 °F /  22.7 °C 60.8 °F /  16 °C 29.64in /  1003.6hPa ENE 0.9mph /  1.4km/h 3.0mph /  4.8km/h 66% 0.00in /  0mm 72.0 W/m2
16:55 72.9 °F /  22.7 °C 62.1 °F /  16.7 °C 29.65in /  1003.9hPa Calm   5.0mph /  8km/h 69% 0.00in /  0mm 76.0 W/m2
17:01 72.9 °F /  22.7 °C 62.1 °F /  16.7 °C 29.65in /  1003.9hPa Calm   3.0mph /  4.8km/h 69% 0.00in /  0mm 79.0 W/m2
17:07 72.7 °F /  22.6 °C 61.9 °F /  16.6 °C 29.64in /  1003.6hPa ENE 4.0mph /  6.4km/h 4.0mph /  6.4km/h 69% 0.00in /  0mm 88.0 W/m2
17:13 72.3 °F /  22.4 °C 62.1 °F /  16.7 °C 29.65in /  1003.9hPa Calm   2.0mph /  3.2km/h 70% 0.00in /  0mm 95.0 W/m2
17:20 72.3 °F /  22.4 °C 62.1 °F /  16.7 °C 29.65in /  1003.9hPa NE 0.9mph /  1.4km/h 2.0mph /  3.2km/h 70% 0.00in /  0mm 100.0 W/m2
17:26 72.3 °F /  22.4 °C 61.2 °F /  16.2 °C 29.65in /  1003.9hPa Calm   1.0mph /  1.6km/h 68% 0.00in /  0mm 97.0 W/m2
17:32 72.5 °F /  22.5 °C 61.0 °F /  16.1 °C 29.65in /  1003.9hPa Calm   2.0mph /  3.2km/h 67% 0.00in /  0mm 97.0 W/m2
17:38 72.7 °F /  22.6 °C 61.9 °F /  16.6 °C 29.65in /  1003.9hPa Calm   2.0mph /  3.2km/h 69% 0.00in /  0mm 91.0 W/m2
17:44 72.9 °F /  22.7 °C 61.7 °F /  16.5 °C 29.65in /  1003.9hPa Calm     68% 0.00in /  0mm 81.0 W/m2
17:50 73.0 °F /  22.8 °C 61.5 °F /  16.4 °C 29.65in /  1003.9hPa Calm     67% 0.00in /  0mm 72.0 W/m2
17:57 73.0 °F /  22.8 °C 61.0 °F /  16.1 °C 29.65in /  1003.9hPa Calm   2.0mph /  3.2km/h 66% 0.00in /  0mm 65.0 W/m2
18:03 73.2 °F /  22.9 °C 61.5 °F /  16.4 °C 29.65in /  1003.9hPa Calm   2.0mph /  3.2km/h 67% 0.00in /  0mm 67.0 W/m2
18:09 73.2 °F /  22.9 °C 61.2 °F /  16.2 °C 29.65in /  1003.9hPa Calm   1.0mph /  1.6km/h 66% 0.00in /  0mm 63.0 W/m2
18:15 73.4 °F /  23 °C 61.7 °F /  16.5 °C 29.65in /  1003.9hPa Calm   1.0mph /  1.6km/h 67% 0.00in /  0mm 63.0 W/m2
18:21 73.4 °F /  23 °C 61.7 °F /  16.5 °C 29.65in /  1003.9hPa Calm   1.0mph /  1.6km/h 67% 0.00in /  0mm 60.0 W/m2
18:27 73.6 °F /  23.1 °C 61.9 °F /  16.6 °C 29.66in /  1004.3hPa Calm   1.0mph /  1.6km/h 67% 0.00in /  0mm 56.0 W/m2
18:33 73.6 °F /  23.1 °C 61.5 °F /  16.4 °C 29.66in /  1004.3hPa Calm   2.0mph /  3.2km/h 66% 0.00in /  0mm 46.0 W/m2
18:39 73.6 °F /  23.1 °C 61.5 °F /  16.4 °C 29.66in /  1004.3hPa Calm     66% 0.00in /  0mm 39.0 W/m2
18:45 73.6 °F /  23.1 °C 62.8 °F /  17.1 °C 29.67in /  1004.6hPa ESE 0.9mph /  1.4km/h 2.0mph /  3.2km/h 69% 0.00in /  0mm 30.0 W/m2
18:51 73.2 °F /  22.9 °C 63.7 °F /  17.6 °C 29.67in /  1004.6hPa Calm   3.0mph /  4.8km/h 72% 0.00in /  0mm 23.0 W/m2
18:57 73.0 °F /  22.8 °C 63.5 °F /  17.5 °C 29.67in /  1004.6hPa NNE 0.9mph /  1.4km/h 3.0mph /  4.8km/h 72% 0.00in /  0mm 19.0 W/m2
19:03 72.5 °F /  22.5 °C 63.3 °F /  17.4 °C 29.67in /  1004.6hPa East 2.9mph /  4.7km/h 3.0mph /  4.8km/h 73% 0.00in /  0mm 16.0 W/m2
19:09 72.1 °F /  22.3 °C 63.0 °F /  17.2 °C 29.67in /  1004.6hPa East 0.9mph /  1.4km/h 3.0mph /  4.8km/h 73% 0.00in /  0mm 12.0 W/m2
19:16 72.0 °F /  22.2 °C 62.8 °F /  17.1 °C 29.67in /  1004.6hPa Calm   1.0mph /  1.6km/h 73% 0.00in /  0mm 9.0 W/m2
19:22 71.8 °F /  22.1 °C 62.6 °F /  17 °C 29.67in /  1004.6hPa Calm   3.0mph /  4.8km/h 73% 0.00in /  0mm 5.0 W/m2
19:28 71.6 °F /  22 °C 63.0 °F /  17.2 °C 29.67in /  1004.6hPa Calm     74% 0.00in /  0mm 0.0 W/m2
19:34 71.6 °F /  22 °C 63.3 °F /  17.4 °C 29.67in /  1004.6hPa Calm   1.0mph /  1.6km/h 75% 0.00in /  0mm 0.0 W/m2
19:40 71.4 °F /  21.9 °C 63.5 °F /  17.5 °C 29.67in /  1004.6hPa Calm   2.0mph /  3.2km/h 76% 0.00in /  0mm 0.0 W/m2
19:46 71.4 °F /  21.9 °C 63.1 °F /  17.3 °C 29.68in /  1005hPa Calm   1.0mph /  1.6km/h 75% 0.00in /  0mm 0.0 W/m2
19:52 71.2 °F /  21.8 °C 63.0 °F /  17.2 °C 29.68in /  1005hPa Calm   3.0mph /  4.8km/h 75% 0.00in /  0mm 0.0 W/m2
19:59 71.2 °F /  21.8 °C 63.3 °F /  17.4 °C 29.69in /  1005.3hPa NE 2.0mph /  3.2km/h 2.0mph /  3.2km/h 76% 0.00in /  0mm 0.0 W/m2
20:05 71.1 °F /  21.7 °C 62.4 °F /  16.9 °C 29.70in /  1005.6hPa Calm   3.0mph /  4.8km/h 74% 0.00in /  0mm 0.0 W/m2
20:11 71.1 °F /  21.7 °C 62.4 °F /  16.9 °C 29.70in /  1005.6hPa Calm     74% 0.00in /  0mm 0.0 W/m2
20:17 71.1 °F /  21.7 °C 62.8 °F /  17.1 °C 29.70in /  1005.6hPa East 0.9mph /  1.4km/h 2.0mph /  3.2km/h 75% 0.00in /  0mm 0.0 W/m2
20:23 71.1 °F /  21.7 °C 63.1 °F /  17.3 °C 29.71in /  1006hPa Calm   2.0mph /  3.2km/h 76% 0.00in /  0mm 0.0 W/m2
20:29 71.1 °F /  21.7 °C 63.1 °F /  17.3 °C 29.71in /  1006hPa Calm   1.0mph /  1.6km/h 76% 0.00in /  0mm 0.0 W/m2
20:35 70.9 °F /  21.6 °C 62.6 °F /  17 °C 29.72in /  1006.3hPa Calm   1.0mph /  1.6km/h 75% 0.00in /  0mm 0.0 W/m2
20:41 70.9 °F /  21.6 °C 63.0 °F /  17.2 °C 29.72in /  1006.3hPa Calm     76% 0.00in /  0mm 0.0 W/m2
20:48 70.9 °F /  21.6 °C 63.3 °F /  17.4 °C 29.72in /  1006.3hPa Calm   1.0mph /  1.6km/h 77% 0.00in /  0mm 0.0 W/m2
20:53 71.1 °F /  21.7 °C 63.5 °F /  17.5 °C 29.72in /  1006.3hPa Calm     77% 0.00in /  0mm 0.0 W/m2
21:00 71.1 °F /  21.7 °C 63.5 °F /  17.5 °C 29.72in /  1006.3hPa Calm   1.0mph /  1.6km/h 77% 0.00in /  0mm 0.0 W/m2
21:06 70.9 °F /  21.6 °C 63.3 °F /  17.4 °C 29.72in /  1006.3hPa Calm     77% 0.00in /  0mm 0.0 W/m2
21:12 70.9 °F /  21.6 °C 63.3 °F /  17.4 °C 29.73in /  1006.7hPa Calm   1.0mph /  1.6km/h 77% 0.00in /  0mm 0.0 W/m2
21:18 70.9 °F /  21.6 °C 62.6 °F /  17 °C 29.73in /  1006.7hPa NNW 2.9mph /  4.7km/h 5.0mph /  8km/h 75% 0.00in /  0mm 0.0 W/m2
21:24 70.9 °F /  21.6 °C 62.2 °F /  16.8 °C 29.74in /  1007hPa Calm   3.0mph /  4.8km/h 74% 0.00in /  0mm 0.0 W/m2
21:30 70.9 °F /  21.6 °C 61.9 °F /  16.6 °C 29.74in /  1007hPa NW 2.0mph /  3.2km/h 5.0mph /  8km/h 73% 0.00in /  0mm 0.0 W/m2
21:36 70.9 °F /  21.6 °C 62.6 °F /  17 °C 29.74in /  1007hPa NNW 2.0mph /  3.2km/h 5.0mph /  8km/h 75% 0.00in /  0mm 0.0 W/m2
21:42 70.5 °F /  21.4 °C 62.2 °F /  16.8 °C 29.74in /  1007hPa NNW 2.0mph /  3.2km/h 5.0mph /  8km/h 75% 0.00in /  0mm 0.0 W/m2
21:48 70.3 °F /  21.3 °C 62.1 °F /  16.7 °C 29.74in /  1007hPa NNE 0.9mph /  1.4km/h 3.0mph /  4.8km/h 75% 0.00in /  0mm 0.0 W/m2
21:54 70.0 °F /  21.1 °C 61.7 °F /  16.5 °C 29.75in /  1007.3hPa NNE 2.0mph /  3.2km/h 4.0mph /  6.4km/h 75% 0.00in /  0mm 0.0 W/m2
22:00 69.6 °F /  20.9 °C 61.0 °F /  16.1 °C 29.74in /  1007hPa North 4.0mph /  6.4km/h 10.0mph /  16.1km/h 74% 0.00in /  0mm 0.0 W/m2
22:06 69.4 °F /  20.8 °C 61.2 °F /  16.2 °C 29.75in /  1007.3hPa NW 2.0mph /  3.2km/h 4.0mph /  6.4km/h 75% 0.00in /  0mm 0.0 W/m2
22:12 69.3 °F /  20.7 °C 61.3 °F /  16.3 °C 29.75in /  1007.3hPa North 0.9mph /  1.4km/h 2.0mph /  3.2km/h 76% 0.00in /  0mm 0.0 W/m2
22:18 69.1 °F /  20.6 °C 61.5 °F /  16.4 °C 29.75in /  1007.3hPa NNW 4.0mph /  6.4km/h 4.0mph /  6.4km/h 77% 0.00in /  0mm 0.0 W/m2
22:25 68.7 °F /  20.4 °C 61.9 °F /  16.6 °C 29.75in /  1007.3hPa Calm   2.0mph /  3.2km/h 79% 0.00in /  0mm 0.0 W/m2
22:31 68.4 °F /  20.2 °C 61.9 °F /  16.6 °C 29.75in /  1007.3hPa Calm   3.0mph /  4.8km/h 80% 0.00in /  0mm 0.0 W/m2
22:37 68.2 °F /  20.1 °C 61.7 °F /  16.5 °C 29.75in /  1007.3hPa Calm   1.0mph /  1.6km/h 80% 0.00in /  0mm 0.0 W/m2
22:43 68.0 °F /  20 °C 61.9 °F /  16.6 °C 29.76in /  1007.7hPa Calm   1.0mph /  1.6km/h 81% 0.00in /  0mm 0.0 W/m2
22:49 67.8 °F /  19.9 °C 61.7 °F /  16.5 °C 29.76in /  1007.7hPa Calm     81% 0.00in /  0mm 0.0 W/m2
22:55 67.6 °F /  19.8 °C 61.5 °F /  16.4 °C 29.75in /  1007.3hPa Calm     81% 0.00in /  0mm 0.0 W/m2
23:01 67.5 °F /  19.7 °C 61.7 °F /  16.5 °C 29.75in /  1007.3hPa Calm     82% 0.00in /  0mm 0.0 W/m2
23:08 67.3 °F /  19.6 °C 61.5 °F /  16.4 °C 29.75in /  1007.3hPa Calm     82% 0.00in /  0mm 0.0 W/m2
23:14 67.3 °F /  19.6 °C 61.5 °F /  16.4 °C 29.75in /  1007.3hPa Calm     82% 0.00in /  0mm 0.0 W/m2
23:20 66.9 °F /  19.4 °C 61.2 °F /  16.2 °C 29.75in /  1007.3hPa Calm   1.0mph /  1.6km/h 82% 0.00in /  0mm 0.0 W/m2
23:26 66.9 °F /  19.4 °C 61.5 °F /  16.4 °C 29.75in /  1007.3hPa Calm     83% 0.00in /  0mm 0.0 W/m2
23:32 66.7 °F /  19.3 °C 61.3 °F /  16.3 °C 29.74in /  1007hPa Calm     83% 0.00in /  0mm 0.0 W/m2
23:38 66.7 °F /  19.3 °C 61.3 °F /  16.3 °C 29.74in /  1007hPa Calm     83% 0.00in /  0mm 0.0 W/m2
23:44 66.6 °F /  19.2 °C 61.5 °F /  16.4 °C 29.74in /  1007hPa Calm     84% 0.00in /  0mm 0.0 W/m2
23:50 66.6 °F /  19.2 °C 61.5 °F /  16.4 °C 29.75in /  1007.3hPa Calm   1.0mph /  1.6km/h 84% 0.00in /  0mm 0.0 W/m2
23:57 66.4 °F /  19.1 °C 61.3 °F /  16.3 °C 29.74in /  1007hPa Calm     84% 0.00in /  0mm 0.0 W/m2
Olympia, Windhoek, Namibia
Compliments of Weather Underground - 3 mb